createdAt,value
2018-11-11T00:01:56.742Z,99194.33
2018-11-11T00:04:26.433Z,99191.89
2018-11-11T00:06:55.459Z,99200.81
2018-11-11T00:09:24.580Z,99202.98
2018-11-11T00:11:53.905Z,99199.72
2018-11-11T00:14:22.901Z,99195.07
2018-11-11T00:16:51.881Z,99195.34
2018-11-11T00:19:21.069Z,99193.48
2018-11-11T00:21:50.098Z,99190.80
2018-11-11T00:24:19.066Z,99185.19
2018-11-11T00:26:48.130Z,99190.69
2018-11-11T00:29:17.179Z,99194.80
2018-11-11T00:31:46.123Z,99191.34
2018-11-11T00:34:15.545Z,99200.04
2018-11-11T00:36:44.457Z,99200.04
2018-11-11T00:39:13.417Z,99199.80
2018-11-11T00:41:42.575Z,99197.62
2018-11-11T00:44:11.619Z,99191.08
2018-11-11T00:46:40.597Z,99190.61
2018-11-11T00:49:09.893Z,99177.63
2018-11-11T00:51:38.869Z,99179.61
2018-11-11T00:54:07.840Z,99173.68
2018-11-11T00:56:36.811Z,99179.72
2018-11-11T00:59:06.325Z,99177.86
2018-11-11T01:01:35.288Z,99172.17
2018-11-11T01:04:04.309Z,99159.97
2018-11-11T01:06:33.253Z,99163.80
2018-11-11T01:09:02.391Z,99158.69
2018-11-11T01:11:31.384Z,99153.80
2018-11-11T01:14:00.604Z,99157.25
2018-11-11T01:16:29.589Z,99156.67
2018-11-11T01:18:58.606Z,99154.73
2018-11-11T01:21:27.584Z,99146.79
2018-11-11T01:23:56.536Z,99146.44
2018-11-11T01:26:25.588Z,99142.87
2018-11-11T01:28:54.571Z,99139.92
2018-11-11T01:31:23.621Z,99130.97
2018-11-11T01:33:52.583Z,99128.80
2018-11-11T01:36:21.557Z,99129.11
2018-11-11T01:38:50.520Z,99122.38
2018-11-11T01:41:19.510Z,99115.05
2018-11-11T01:43:48.508Z,99106.09
2018-11-11T01:46:17.494Z,99101.25
2018-11-11T01:48:46.509Z,99096.87
2018-11-11T01:51:15.794Z,99101.44
2018-11-11T01:53:44.755Z,99097.37
2018-11-11T01:56:13.745Z,99091.98
2018-11-11T01:58:42.750Z,99093.34
2018-11-11T02:01:11.903Z,99093.89
2018-11-11T02:03:41.019Z,99088.73
2018-11-11T02:06:09.947Z,99086.25
2018-11-11T02:08:38.912Z,99094.16
2018-11-11T02:11:07.943Z,99094.16
2018-11-11T02:13:36.922Z,99091.17
2018-11-11T02:16:06.706Z,99081.76
2018-11-11T02:18:35.736Z,99082.30
2018-11-11T02:21:04.745Z,99081.49
2018-11-11T02:23:33.744Z,99075.52
2018-11-11T02:26:02.677Z,99074.43
2018-11-11T02:28:31.742Z,99076.56
2018-11-11T02:31:01.054Z,99073.26
2018-11-11T02:33:29.999Z,99073.26
2018-11-11T02:35:58.921Z,99074.85
2018-11-11T02:38:28.090Z,99083.44
2018-11-11T02:40:57.137Z,99079.37
2018-11-11T02:43:26.131Z,99072.09
2018-11-11T02:45:55.263Z,99061.48
2018-11-11T02:48:24.318Z,99057.91
2018-11-11T02:50:53.422Z,99051.62
2018-11-11T02:53:22.393Z,99043.40
2018-11-11T02:55:51.638Z,99035.52
2018-11-11T02:58:20.633Z,99031.45
2018-11-11T03:00:49.695Z,99027.88
2018-11-11T03:03:19.028Z,99029.73
2018-11-11T03:05:48.117Z,99016.66
2018-11-11T03:08:17.131Z,99013.86
2018-11-11T03:10:46.164Z,99008.20
2018-11-11T03:13:15.115Z,99009.25
2018-11-11T03:15:44.108Z,99003.73
2018-11-11T03:18:13.192Z,98999.38
2018-11-11T03:20:42.392Z,99008.02
2018-11-11T03:23:11.462Z,99010.42
2018-11-11T03:25:40.635Z,99010.91
2018-11-11T03:28:09.756Z,99015.95
2018-11-11T03:30:38.990Z,99015.95
2018-11-11T03:33:08.064Z,99012.69
2018-11-11T03:35:37.074Z,99005.27
2018-11-11T03:38:06.416Z,99003.72
2018-11-11T03:40:35.539Z,99010.36
2018-11-11T03:43:04.621Z,98998.64
2018-11-11T03:45:33.810Z,99000.80
2018-11-11T03:48:03.026Z,99007.28
2018-11-11T03:50:32.049Z,98998.09
2018-11-11T03:53:01.136Z,98998.91
2018-11-11T03:55:30.494Z,99011.35
2018-11-11T03:57:59.561Z,99005.69
2018-11-11T04:00:28.782Z,99011.13
2018-11-11T04:02:58.039Z,99007.91
2018-11-11T04:05:27.183Z,99011.67
2018-11-11T04:07:56.192Z,99007.05
2018-11-11T04:10:25.227Z,99013.52
2018-11-11T04:12:54.416Z,99016.73
2018-11-11T04:15:23.495Z,99018.86
2018-11-11T04:17:52.562Z,99025.59
2018-11-11T04:20:21.957Z,99022.88
2018-11-11T04:22:51.120Z,99020.71
2018-11-11T04:25:20.473Z,99028.00
2018-11-11T04:27:49.546Z,99034.45
2018-11-11T04:30:19.042Z,99035.66
2018-11-11T04:32:48.041Z,99028.67
2018-11-11T04:35:17.069Z,99024.14
2018-11-11T04:37:46.247Z,99034.40
2018-11-11T04:40:15.470Z,99035.35
2018-11-11T04:42:44.453Z,99035.61
2018-11-11T04:45:15.075Z,99042.41
2018-11-11T04:47:45.185Z,99045.12
2018-11-11T04:50:15.523Z,99041.86
2018-11-11T04:52:45.208Z,99050.18
2018-11-11T04:55:14.320Z,99063.67
2018-11-11T04:57:43.892Z,99055.35
2018-11-11T05:00:14.139Z,99064.37
2018-11-11T05:02:43.459Z,99068.70
2018-11-11T05:05:13.405Z,99067.27
2018-11-11T05:07:42.789Z,99067.09
2018-11-11T05:10:12.248Z,99060.30
2018-11-11T05:12:41.330Z,99058.22
2018-11-11T05:15:11.962Z,99059.39
2018-11-11T05:17:44.904Z,99058.09
2018-11-11T05:20:14.561Z,99068.18
2018-11-11T05:22:44.070Z,99087.11
2018-11-11T05:25:14.483Z,99098.16
2018-11-11T05:27:43.985Z,99107.61
2018-11-11T05:30:14.689Z,99115.70
2018-11-11T05:32:43.645Z,99115.63
2018-11-11T05:35:13.333Z,99120.68
2018-11-11T05:37:42.817Z,99120.05
2018-11-11T05:40:12.904Z,99128.88
2018-11-11T05:42:42.636Z,99129.05
2018-11-11T05:45:12.551Z,99129.59
2018-11-11T05:47:41.961Z,99134.25
2018-11-11T05:50:13.077Z,99134.25
2018-11-11T05:52:42.677Z,99142.03
2018-11-11T05:55:11.704Z,99142.98
2018-11-11T05:57:40.901Z,99144.84
2018-11-11T06:00:12.359Z,99143.48
2018-11-11T06:02:41.632Z,99154.84
2018-11-11T06:05:12.420Z,99168.88
2018-11-11T06:07:41.587Z,99184.87
2018-11-11T06:10:12.401Z,99168.06
2018-11-11T06:12:41.391Z,99187.23
2018-11-11T06:15:11.818Z,99185.26
2018-11-11T06:17:40.769Z,99199.97
2018-11-11T06:20:12.789Z,99202.06
2018-11-11T06:22:41.860Z,99204.47
2018-11-11T06:25:11.468Z,99201.20
2018-11-11T06:27:40.479Z,99207.67
2018-11-11T06:30:10.315Z,99205.95
2018-11-11T06:32:39.355Z,99213.96
2018-11-11T06:35:08.556Z,99209.75
2018-11-11T06:37:37.685Z,99213.45
2018-11-11T06:40:08.521Z,99221.30
2018-11-11T06:42:38.106Z,99236.52
2018-11-11T06:45:08.785Z,99249.61
2018-11-11T06:47:37.821Z,99241.27
2018-11-11T06:50:08.244Z,99257.09
2018-11-11T06:52:37.377Z,99265.30
2018-11-11T06:55:06.460Z,99265.30
2018-11-11T06:57:35.457Z,99272.36
2018-11-11T07:00:04.663Z,99274.19
2018-11-11T07:02:35.973Z,99276.05
2018-11-11T07:05:05.686Z,99296.56
2018-11-11T07:07:34.713Z,99319.31
2018-11-11T07:10:03.846Z,99312.25
2018-11-11T07:12:32.900Z,99299.66
2018-11-11T07:15:01.892Z,99302.32
2018-11-11T07:17:30.891Z,99309.80
2018-11-11T07:19:59.901Z,99313.51
2018-11-11T07:22:28.860Z,99317.08
2018-11-11T07:24:57.841Z,99329.31
2018-11-11T07:27:26.807Z,99345.58
2018-11-11T07:29:55.805Z,99347.13
2018-11-11T07:32:24.835Z,99356.56
2018-11-11T07:34:53.824Z,99367.02
2018-11-11T07:37:22.794Z,99392.73
2018-11-11T07:39:51.810Z,99395.59
2018-11-11T07:42:20.849Z,99392.24
2018-11-11T07:44:50.012Z,99398.86
2018-11-11T07:47:19.099Z,99402.25
2018-11-11T07:49:48.240Z,99409.91
2018-11-11T07:52:17.259Z,99412.44
2018-11-11T07:54:46.302Z,99421.95
2018-11-11T07:57:15.283Z,99428.75
2018-11-11T07:59:44.260Z,99440.44
2018-11-11T08:02:13.466Z,99444.52
2018-11-11T08:04:42.449Z,99452.91
2018-11-11T08:07:11.526Z,99452.67
2018-11-11T08:09:40.638Z,99456.44
2018-11-11T08:12:09.844Z,99462.11
2018-11-11T08:14:39.034Z,99469.95
2018-11-11T08:17:08.018Z,99472.87
2018-11-11T08:19:37.119Z,99471.42
2018-11-11T08:22:06.722Z,99488.43
2018-11-11T08:24:35.684Z,99488.85
2018-11-11T08:27:04.775Z,99497.70
2018-11-11T08:29:33.884Z,99501.35
2018-11-11T08:32:02.975Z,99493.69
2018-11-11T08:34:32.006Z,99498.89
2018-11-11T08:37:01.045Z,99502.48
2018-11-11T08:39:30.217Z,99506.87
2018-11-11T08:42:01.138Z,99515.53
2018-11-11T08:44:30.180Z,99520.35
2018-11-11T08:46:59.155Z,99523.02
2018-11-11T08:49:28.229Z,99524.66
2018-11-11T08:51:57.245Z,99530.84
2018-11-11T08:54:26.251Z,99534.09
2018-11-11T08:56:55.265Z,99539.56
2018-11-11T08:59:24.311Z,99538.40
2018-11-11T09:01:53.346Z,99552.48
2018-11-11T09:04:22.351Z,99552.56
2018-11-11T09:06:51.457Z,99557.99
2018-11-11T09:09:20.525Z,99572.36
2018-11-11T09:11:49.524Z,99576.67
2018-11-11T09:14:18.922Z,99573.41
2018-11-11T09:16:48.009Z,99584.02
2018-11-11T09:19:17.212Z,99597.02
2018-11-11T09:21:46.285Z,99588.22
2018-11-11T09:24:15.655Z,99594.09
2018-11-11T09:26:44.702Z,99589.36
2018-11-11T09:29:13.886Z,99596.86
2018-11-11T09:31:42.925Z,99600.02
2018-11-11T09:34:12.010Z,99614.50
2018-11-11T09:36:41.129Z,99615.55
2018-11-11T09:39:11.701Z,99620.34
2018-11-11T09:41:41.793Z,99618.32
2018-11-11T09:44:10.864Z,99619.87
2018-11-11T09:46:39.956Z,99624.70
2018-11-11T09:49:08.970Z,99625.55
2018-11-11T09:51:38.051Z,99627.53
2018-11-11T09:54:07.692Z,99630.91
2018-11-11T09:56:37.067Z,99633.94
2018-11-11T09:59:06.924Z,99634.28
2018-11-11T10:01:37.150Z,99647.61
2018-11-11T10:04:13.307Z,99648.73
2018-11-11T10:06:47.770Z,99652.34
2018-11-11T10:09:54.317Z,99648.88
2018-11-11T10:12:35.178Z,99656.38
2018-11-11T10:15:18.229Z,99654.61
2018-11-11T10:17:52.336Z,99653.11
2018-11-11T10:21:30.032Z,99658.95
2018-11-11T10:24:04.343Z,99663.58
2018-11-11T10:26:38.276Z,99669.68
2018-11-11T10:29:12.639Z,99679.33
2018-11-11T10:31:51.468Z,99671.82
2018-11-11T10:34:27.629Z,99664.28
2018-11-11T10:37:02.735Z,99674.19
2018-11-11T10:39:41.448Z,99675.73
2018-11-11T10:42:15.673Z,99677.55
2018-11-11T10:44:56.194Z,99683.42
2018-11-11T10:47:43.175Z,99686.03
2018-11-11T10:50:17.253Z,99690.45
2018-11-11T10:52:47.255Z,99681.79
2018-11-11T10:55:16.302Z,99694.38
2018-11-11T10:57:45.344Z,99703.16
2018-11-11T11:00:19.551Z,99703.84
2018-11-11T11:02:55.334Z,99703.48
2018-11-11T11:05:24.447Z,99713.02
2018-11-11T11:07:53.913Z,99710.03
2018-11-11T11:10:23.170Z,99717.92
2018-11-11T11:12:52.289Z,99713.84
2018-11-11T11:15:21.648Z,99727.75
2018-11-11T11:17:50.851Z,99729.69
2018-11-11T11:20:19.996Z,99729.92
2018-11-11T11:22:49.066Z,99733.70
2018-11-11T11:25:18.156Z,99733.88
2018-11-11T11:27:47.251Z,99735.15
2018-11-11T11:30:18.668Z,99735.75
2018-11-11T11:32:51.637Z,99742.39
2018-11-11T11:35:23.685Z,99745.61
2018-11-11T11:37:57.277Z,99747.29
2018-11-11T11:40:29.177Z,99743.30
2018-11-11T11:43:01.245Z,99745.61
2018-11-11T11:45:33.893Z,99749.75
2018-11-11T11:48:06.817Z,99754.42
2018-11-11T11:50:40.569Z,99756.75
2018-11-11T11:53:12.543Z,99764.02
2018-11-11T11:55:44.176Z,99760.61
2018-11-11T11:58:25.757Z,99769.47
2018-11-11T12:00:57.790Z,99775.84
2018-11-11T12:03:26.928Z,99776.89
2018-11-11T12:05:56.056Z,99778.02
2018-11-11T12:08:25.259Z,99783.84
2018-11-11T12:10:54.510Z,99777.39
2018-11-11T12:13:23.752Z,99784.02
2018-11-11T12:15:53.321Z,99785.28
2018-11-11T12:18:22.455Z,99792.77
2018-11-11T12:20:51.596Z,99803.17
2018-11-11T12:23:20.716Z,99801.81
2018-11-11T12:25:49.696Z,99798.22
2018-11-11T12:28:18.940Z,99794.05
2018-11-11T12:30:48.084Z,99800.01
2018-11-11T12:33:17.207Z,99795.56
2018-11-11T12:35:46.217Z,99796.11
2018-11-11T12:38:15.290Z,99798.33
2018-11-11T12:40:44.440Z,99806.32
2018-11-11T12:43:13.570Z,99808.86
2018-11-11T12:45:43.309Z,99816.85
2018-11-11T12:48:12.398Z,99820.39
2018-11-11T12:50:42.279Z,99821.13
2018-11-11T12:53:11.347Z,99827.47
2018-11-11T12:55:41.301Z,99822.65
2018-11-11T12:58:10.367Z,99827.35
2018-11-11T13:00:39.558Z,99826.86
2018-11-11T13:03:09.594Z,99826.13
2018-11-11T13:05:38.718Z,99826.99
2018-11-11T13:08:07.987Z,99840.32
2018-11-11T13:10:36.884Z,99839.82
2018-11-11T13:13:06.798Z,99846.33
2018-11-11T13:15:35.768Z,99832.77
2018-11-11T13:18:04.963Z,99846.69
2018-11-11T13:20:34.004Z,99848.05
2018-11-11T13:23:03.147Z,99840.27
2018-11-11T13:25:32.265Z,99839.77
2018-11-11T13:28:02.590Z,99845.59
2018-11-11T13:30:31.601Z,99851.67
2018-11-11T13:33:00.692Z,99851.67
2018-11-11T13:35:30.089Z,99850.86
2018-11-11T13:37:59.323Z,99851.09
2018-11-11T13:40:28.309Z,99851.09
2018-11-11T13:42:57.554Z,99852.17
2018-11-11T13:45:26.692Z,99859.47
2018-11-11T13:47:55.832Z,99859.97
2018-11-11T13:50:25.986Z,99860.28
2018-11-11T13:52:55.131Z,99854.64
2018-11-11T13:55:24.788Z,99854.95
2018-11-11T13:57:53.832Z,99857.68
2018-11-11T14:00:27.950Z,99861.22
2018-11-11T14:02:57.299Z,99865.81
2018-11-11T14:05:26.345Z,99870.38
2018-11-11T14:07:55.532Z,99870.02
2018-11-11T14:10:24.593Z,99868.78
2018-11-11T14:12:53.647Z,99863.20
2018-11-11T14:15:24.158Z,99865.80
2018-11-11T14:17:54.067Z,99870.47
2018-11-11T14:20:24.046Z,99870.47
2018-11-11T14:22:54.354Z,99869.66
2018-11-11T14:25:26.694Z,99872.94
2018-11-11T14:27:55.694Z,99873.48
2018-11-11T14:30:25.912Z,99872.94
2018-11-11T14:32:55.917Z,99875.16
2018-11-11T14:35:25.864Z,99872.52
2018-11-11T14:37:54.963Z,99869.28
2018-11-11T14:40:26.192Z,99873.38
2018-11-11T14:42:55.210Z,99868.23
2018-11-11T14:45:24.620Z,99872.37
2018-11-11T14:47:54.659Z,99868.34
2018-11-11T14:50:24.566Z,99868.91
2018-11-11T14:52:53.790Z,99874.66
2018-11-11T14:55:24.205Z,99878.28
2018-11-11T14:57:53.323Z,99875.28
2018-11-11T15:00:23.993Z,99880.73
2018-11-11T15:03:01.557Z,99869.02
2018-11-11T15:05:30.854Z,99876.65
2018-11-11T15:08:00.131Z,99879.19
2018-11-11T15:10:29.798Z,99893.95
2018-11-11T15:12:59.110Z,99899.41
2018-11-11T15:15:28.126Z,99894.73
2018-11-11T15:17:58.218Z,99899.96
2018-11-11T15:20:27.411Z,99899.96
2018-11-11T15:22:56.388Z,99900.51
2018-11-11T15:25:26.853Z,99907.41
2018-11-11T15:27:56.013Z,99901.45
2018-11-11T15:30:30.177Z,99903.36
2018-11-11T15:32:59.832Z,99909.67
2018-11-11T15:35:28.837Z,99914.63
2018-11-11T15:37:57.986Z,99918.22
2018-11-11T15:40:28.278Z,99921.80
2018-11-11T15:42:57.417Z,99928.15
2018-11-11T15:45:27.881Z,99938.55
2018-11-11T15:47:56.922Z,99946.78
2018-11-11T15:50:27.246Z,99948.18
2018-11-11T15:53:01.608Z,99952.08
2018-11-11T15:55:32.131Z,99962.00
2018-11-11T15:58:01.205Z,99967.77
2018-11-11T16:00:32.467Z,99974.35
2018-11-11T16:03:05.997Z,99985.33
2018-11-11T16:05:35.141Z,99992.77
2018-11-11T16:08:04.500Z,99988.16
2018-11-11T16:10:34.256Z,99997.74
2018-11-11T16:13:03.291Z,99995.33
2018-11-11T16:15:33.985Z,99997.30
2018-11-11T16:18:05.077Z,100011.52
2018-11-11T16:20:34.177Z,100007.53
2018-11-11T16:23:05.042Z,100010.36
2018-11-11T16:25:34.179Z,100011.25
2018-11-11T16:28:03.252Z,100011.35
2018-11-11T16:30:33.702Z,100010.91
2018-11-11T16:33:03.178Z,100011.55
2018-11-11T16:35:33.380Z,100009.71
2018-11-11T16:38:02.912Z,100010.31
2018-11-11T16:40:33.619Z,100006.33
2018-11-11T16:43:02.879Z,100008.33
2018-11-11T16:45:32.938Z,100008.42
2018-11-11T16:48:02.090Z,100009.30
2018-11-11T16:50:32.452Z,100012.61
2018-11-11T16:53:05.045Z,100013.23
2018-11-11T16:55:34.901Z,100007.58
2018-11-11T16:58:03.952Z,100013.36
2018-11-11T17:00:34.377Z,100021.01
2018-11-11T17:03:04.293Z,100015.35
2018-11-11T17:05:34.597Z,100023.00
2018-11-11T17:08:03.658Z,100019.52
2018-11-11T17:10:34.018Z,100031.80
2018-11-11T17:13:04.977Z,100032.40
2018-11-11T17:15:34.598Z,100029.98
2018-11-11T17:18:03.579Z,100028.64
2018-11-11T17:20:32.747Z,100034.14
2018-11-11T17:23:03.525Z,100037.44
2018-11-11T17:25:32.544Z,100045.66
2018-11-11T17:28:01.685Z,100048.94
2018-11-11T17:30:31.886Z,100056.34
2018-11-11T17:33:01.676Z,100062.38
2018-11-11T17:35:30.704Z,100063.22
2018-11-11T17:37:59.716Z,100071.95
2018-11-11T17:40:30.020Z,100086.97
2018-11-11T17:42:59.666Z,100084.55
2018-11-11T17:45:28.749Z,100095.72
2018-11-11T17:47:58.150Z,100104.15
2018-11-11T17:50:28.690Z,100111.82
2018-11-11T17:52:58.231Z,100115.37
2018-11-11T17:55:27.998Z,100108.36
2018-11-11T17:57:57.005Z,100112.70
2018-11-11T18:00:27.280Z,100121.73
2018-11-11T18:02:57.026Z,100123.62
2018-11-11T18:05:27.216Z,100116.84
2018-11-11T18:07:56.195Z,100119.05
2018-11-11T18:10:25.840Z,100112.81
2018-11-11T18:12:54.894Z,100113.61
2018-11-11T18:15:31.316Z,100110.59
2018-11-11T18:18:00.467Z,100110.56
2018-11-11T18:20:30.877Z,100110.84
2018-11-11T18:23:00.814Z,100121.16
2018-11-11T18:25:29.816Z,100113.81
2018-11-11T18:27:59.078Z,100120.61
2018-11-11T18:30:30.913Z,100127.66
2018-11-11T18:33:00.049Z,100121.97
2018-11-11T18:35:29.087Z,100128.48
2018-11-11T18:37:58.078Z,100135.57
2018-11-11T18:40:28.272Z,100129.31
2018-11-11T18:42:57.332Z,100130.67
2018-11-11T18:45:27.774Z,100140.17
2018-11-11T18:47:56.912Z,100141.53
2018-11-11T18:50:33.560Z,100145.08
2018-11-11T18:53:03.247Z,100151.59
2018-11-11T18:55:32.404Z,100141.84
2018-11-11T18:58:01.794Z,100152.20
2018-11-11T19:00:32.065Z,100155.52
2018-11-11T19:03:01.170Z,100147.95
2018-11-11T19:05:30.361Z,100145.78
2018-11-11T19:07:59.806Z,100147.98
2018-11-11T19:10:32.242Z,100162.98
2018-11-11T19:13:02.596Z,100174.15
2018-11-11T19:15:31.665Z,100168.48
2018-11-11T19:18:00.748Z,100167.95
2018-11-11T19:20:29.985Z,100166.91
2018-11-11T19:22:59.013Z,100163.71
2018-11-11T19:25:29.276Z,100166.48
2018-11-11T19:27:59.181Z,100168.69
2018-11-11T19:30:29.168Z,100164.66
2018-11-11T19:32:58.299Z,100175.26
2018-11-11T19:35:27.973Z,100171.77
2018-11-11T19:37:57.772Z,100170.70
2018-11-11T19:40:28.195Z,100179.14
2018-11-11T19:42:58.652Z,100176.14
2018-11-11T19:45:28.819Z,100182.14
2018-11-11T19:47:58.723Z,100181.33
2018-11-11T19:50:29.857Z,100192.20
2018-11-11T19:52:59.298Z,100186.22
2018-11-11T19:55:28.680Z,100185.41
2018-11-11T19:57:58.102Z,100190.84
2018-11-11T20:00:28.794Z,100191.95
2018-11-11T20:03:02.823Z,100194.66
2018-11-11T20:05:33.133Z,100214.77
2018-11-11T20:08:02.659Z,100200.65
2018-11-11T20:10:32.245Z,100207.20
2018-11-11T20:13:01.778Z,100219.67
2018-11-11T20:15:32.332Z,100218.31
2018-11-11T20:18:01.369Z,100219.67
2018-11-11T20:20:33.724Z,100219.67
2018-11-11T20:23:03.158Z,100231.37
2018-11-11T20:25:32.681Z,100225.15
2018-11-11T20:28:01.883Z,100223.55
2018-11-11T20:30:32.594Z,100216.75
2018-11-11T20:33:02.720Z,100216.22
2018-11-11T20:35:32.578Z,100218.94
2018-11-11T20:38:01.790Z,100229.80
2018-11-11T20:40:30.972Z,100230.34
2018-11-11T20:43:00.480Z,100224.37
2018-11-11T20:45:31.124Z,100212.39
2018-11-11T20:48:00.162Z,100214.03
2018-11-11T20:50:30.583Z,100218.61
2018-11-11T20:53:02.067Z,100218.34
2018-11-11T20:55:31.268Z,100229.72
2018-11-11T20:58:00.739Z,100221.84
2018-11-11T21:00:32.445Z,100223.45
2018-11-11T21:03:02.445Z,100226.70
2018-11-11T21:05:31.768Z,100231.84
2018-11-11T21:08:01.113Z,100222.32
2018-11-11T21:10:30.809Z,100231.50
2018-11-11T21:13:00.426Z,100235.28
2018-11-11T21:15:30.683Z,100240.14
2018-11-11T21:17:59.925Z,100249.63
2018-11-11T21:20:34.877Z,100253.70
2018-11-11T21:23:04.138Z,100252.35
2018-11-11T21:25:33.415Z,100258.61
2018-11-11T21:28:02.469Z,100255.62
2018-11-11T21:30:32.500Z,100251.83
2018-11-11T21:33:01.629Z,100251.88
2018-11-11T21:35:31.556Z,100252.17
2018-11-11T21:38:00.777Z,100252.22
2018-11-11T21:40:29.865Z,100258.20
2018-11-11T21:42:59.034Z,100260.96
2018-11-11T21:45:29.010Z,100249.31
2018-11-11T21:47:58.332Z,100245.81
2018-11-11T21:50:28.019Z,100247.47
2018-11-11T21:53:06.173Z,100251.02
2018-11-11T21:55:35.360Z,100257.84
2018-11-11T21:58:04.361Z,100264.63
2018-11-11T22:00:33.398Z,100268.68
2018-11-11T22:03:02.777Z,100269.50
2018-11-11T22:05:31.934Z,100270.86
2018-11-11T22:08:00.968Z,100272.51
2018-11-11T22:10:29.988Z,100271.40
2018-11-11T22:12:58.974Z,100277.94
2018-11-11T22:15:28.003Z,100278.77
2018-11-11T22:17:57.938Z,100277.66
2018-11-11T22:20:27.018Z,100283.95
2018-11-11T22:22:56.161Z,100276.05
2018-11-11T22:25:25.182Z,100283.95
2018-11-11T22:27:54.252Z,100283.70
2018-11-11T22:30:23.254Z,100290.73
2018-11-11T22:32:52.350Z,100289.38
2018-11-11T22:35:21.386Z,100296.45
2018-11-11T22:37:50.465Z,100293.45
2018-11-11T22:40:19.428Z,100294.56
2018-11-11T22:42:48.521Z,100294.28
2018-11-11T22:45:17.567Z,100284.52
2018-11-11T22:47:46.757Z,100293.49
2018-11-11T22:50:17.540Z,100290.52
2018-11-11T22:52:46.881Z,100293.49
2018-11-11T22:55:16.259Z,100293.49
2018-11-11T22:57:45.458Z,100288.88
2018-11-11T23:00:21.959Z,100296.23
2018-11-11T23:02:51.717Z,100286.77
2018-11-11T23:05:21.648Z,100287.59
2018-11-11T23:07:50.857Z,100288.41
2018-11-11T23:10:19.908Z,100301.48
2018-11-11T23:12:48.965Z,100301.77
2018-11-11T23:15:20.110Z,100305.89
2018-11-11T23:17:49.266Z,100306.48
2018-11-11T23:20:37.789Z,100304.03
2018-11-11T23:23:25.588Z,100302.96
2018-11-11T23:26:12.465Z,100305.14
2018-11-11T23:28:55.033Z,100304.03
2018-11-11T23:31:42.093Z,100309.47
2018-11-11T23:34:29.208Z,100305.37
2018-11-11T23:37:15.357Z,100300.77
2018-11-11T23:39:45.056Z,100309.70
2018-11-11T23:42:31.754Z,100311.06
2018-11-11T23:45:19.710Z,100311.32
2018-11-11T23:48:07.500Z,100314.29
2018-11-11T23:50:58.430Z,100311.30
2018-11-11T23:53:45.844Z,100308.27
2018-11-11T23:56:33.106Z,100309.62
2018-11-11T23:59:20.698Z,100307.98
